sensor_id;sensor_type;location;lat;lon;timestamp;P1;durP1;ratioP1;P2;durP2;ratioP2
30020;SDS011;16861;52.294;7.760;2023-08-24T00:01:19;4.40;;;2.78;;
30020;SDS011;16861;52.294;7.760;2023-08-24T00:03:46;5.40;;;2.65;;
30020;SDS011;16861;52.294;7.760;2023-08-24T00:06:14;5.13;;;2.58;;
30020;SDS011;16861;52.294;7.760;2023-08-24T00:08:40;3.67;;;2.38;;
30020;SDS011;16861;52.294;7.760;2023-08-24T00:11:07;3.58;;;2.60;;
30020;SDS011;16861;52.294;7.760;2023-08-24T00:13:34;4.18;;;2.70;;
30020;SDS011;16861;52.294;7.760;2023-08-24T00:16:00;3.45;;;2.10;;
30020;SDS011;16861;52.294;7.760;2023-08-24T00:18:27;4.57;;;2.65;;
30020;SDS011;16861;52.294;7.760;2023-08-24T00:20:53;3.38;;;2.30;;
30020;SDS011;16861;52.294;7.760;2023-08-24T00:23:20;6.45;;;2.92;;
30020;SDS011;16861;52.294;7.760;2023-08-24T00:25:46;7.45;;;3.10;;
30020;SDS011;16861;52.294;7.760;2023-08-24T00:28:13;5.10;;;3.40;;
30020;SDS011;16861;52.294;7.760;2023-08-24T00:30:39;5.43;;;2.75;;
30020;SDS011;16861;52.294;7.760;2023-08-24T00:33:06;5.50;;;2.80;;
30020;SDS011;16861;52.294;7.760;2023-08-24T00:35:32;3.05;;;2.75;;
30020;SDS011;16861;52.294;7.760;2023-08-24T00:37:59;4.80;;;3.00;;
30020;SDS011;16861;52.294;7.760;2023-08-24T00:40:26;5.13;;;2.75;;
30020;SDS011;16861;52.294;7.760;2023-08-24T00:42:52;4.85;;;3.17;;
30020;SDS011;16861;52.294;7.760;2023-08-24T00:45:19;5.70;;;2.60;;
30020;SDS011;16861;52.294;7.760;2023-08-24T00:47:46;5.65;;;2.58;;
30020;SDS011;16861;52.294;7.760;2023-08-24T00:50:15;6.57;;;2.85;;
30020;SDS011;16861;52.294;7.760;2023-08-24T00:52:43;3.55;;;2.70;;
30020;SDS011;16861;52.294;7.760;2023-08-24T00:55:11;4.60;;;2.80;;
30020;SDS011;16861;52.294;7.760;2023-08-24T00:57:37;4.65;;;3.05;;
30020;SDS011;16861;52.294;7.760;2023-08-24T01:00:06;4.10;;;2.60;;
30020;SDS011;16861;52.294;7.760;2023-08-24T01:02:39;4.18;;;2.63;;
30020;SDS011;16861;52.294;7.760;2023-08-24T01:05:06;4.47;;;2.85;;
30020;SDS011;16861;52.294;7.760;2023-08-24T01:07:37;4.18;;;2.40;;
30020;SDS011;16861;52.294;7.760;2023-08-24T01:10:05;4.38;;;2.72;;
30020;SDS011;16861;52.294;7.760;2023-08-24T01:12:48;7.22;;;2.85;;
30020;SDS011;16861;52.294;7.760;2023-08-24T01:15:28;4.75;;;3.00;;
30020;SDS011;16861;52.294;7.760;2023-08-24T01:18:04;3.90;;;2.85;;
30020;SDS011;16861;52.294;7.760;2023-08-24T01:20:35;6.50;;;3.30;;
30020;SDS011;16861;52.294;7.760;2023-08-24T01:23:18;5.47;;;3.58;;
30020;SDS011;16861;52.294;7.760;2023-08-24T01:26:11;7.85;;;3.55;;
30020;SDS011;16861;52.294;7.760;2023-08-24T01:28:40;8.77;;;3.38;;
30020;SDS011;16861;52.294;7.760;2023-08-24T01:31:09;5.25;;;3.70;;
30020;SDS011;16861;52.294;7.760;2023-08-24T01:33:36;7.95;;;4.03;;
30020;SDS011;16861;52.294;7.760;2023-08-24T01:36:03;8.82;;;4.50;;
30020;SDS011;16861;52.294;7.760;2023-08-24T01:38:29;7.10;;;4.53;;
30020;SDS011;16861;52.294;7.760;2023-08-24T01:41:09;7.07;;;4.47;;
30020;SDS011;16861;52.294;7.760;2023-08-24T01:43:40;6.68;;;4.72;;
30020;SDS011;16861;52.294;7.760;2023-08-24T01:46:10;6.80;;;5.10;;
30020;SDS011;16861;52.294;7.760;2023-08-24T01:48:41;9.40;;;5.60;;
30020;SDS011;16861;52.294;7.760;2023-08-24T01:51:08;9.32;;;5.68;;
30020;SDS011;16861;52.294;7.760;2023-08-24T01:53:36;9.98;;;6.40;;
30020;SDS011;16861;52.294;7.760;2023-08-24T01:56:11;7.90;;;5.85;;
30020;SDS011;16861;52.294;7.760;2023-08-24T01:58:39;11.93;;;6.50;;
30020;SDS011;16861;52.294;7.760;2023-08-24T02:01:05;11.38;;;6.40;;
30020;SDS011;16861;52.294;7.760;2023-08-24T02:03:37;9.68;;;5.95;;
30020;SDS011;16861;52.294;7.760;2023-08-24T02:06:05;13.02;;;7.40;;
30020;SDS011;16861;52.294;7.760;2023-08-24T02:08:33;13.90;;;7.53;;
30020;SDS011;16861;52.294;7.760;2023-08-24T02:10:59;12.02;;;6.93;;
30020;SDS011;16861;52.294;7.760;2023-08-24T02:13:26;11.63;;;7.57;;
30020;SDS011;16861;52.294;7.760;2023-08-24T02:16:05;10.88;;;7.60;;
30020;SDS011;16861;52.294;7.760;2023-08-24T02:18:33;9.25;;;6.72;;
30020;SDS011;16861;52.294;7.760;2023-08-24T02:21:00;9.52;;;7.55;;
30020;SDS011;16861;52.294;7.760;2023-08-24T02:23:32;11.90;;;7.97;;
30020;SDS011;16861;52.294;7.760;2023-08-24T02:25:59;9.00;;;7.05;;
30020;SDS011;16861;52.294;7.760;2023-08-24T02:28:25;9.77;;;7.22;;
30020;SDS011;16861;52.294;7.760;2023-08-24T02:30:52;12.35;;;7.18;;
30020;SDS011;16861;52.294;7.760;2023-08-24T02:33:20;12.18;;;7.68;;
30020;SDS011;16861;52.294;7.760;2023-08-24T02:35:47;11.63;;;8.65;;
30020;SDS011;16861;52.294;7.760;2023-08-24T02:38:13;12.90;;;7.57;;
30020;SDS011;16861;52.294;7.760;2023-08-24T02:40:40;12.93;;;7.80;;
30020;SDS011;16861;52.294;7.760;2023-08-24T02:43:06;10.50;;;8.40;;
30020;SDS011;16861;52.294;7.760;2023-08-24T02:45:33;12.38;;;7.93;;
30020;SDS011;16861;52.294;7.760;2023-08-24T02:48:00;14.93;;;8.45;;
30020;SDS011;16861;52.294;7.760;2023-08-24T02:50:27;11.60;;;8.23;;
30020;SDS011;16861;52.294;7.760;2023-08-24T02:52:53;14.90;;;9.30;;
30020;SDS011;16861;52.294;7.760;2023-08-24T02:55:20;10.65;;;8.25;;
30020;SDS011;16861;52.294;7.760;2023-08-24T02:57:46;11.82;;;8.70;;
30020;SDS011;16861;52.294;7.760;2023-08-24T03:00:13;13.30;;;8.52;;
30020;SDS011;16861;52.294;7.760;2023-08-24T03:02:40;13.73;;;9.20;;
30020;SDS011;16861;52.294;7.760;2023-08-24T03:05:06;11.45;;;8.43;;
30020;SDS011;16861;52.294;7.760;2023-08-24T03:07:33;10.20;;;8.02;;
30020;SDS011;16861;52.294;7.760;2023-08-24T03:10:00;12.70;;;8.13;;
30020;SDS011;16861;52.294;7.760;2023-08-24T03:12:26;11.73;;;8.50;;
30020;SDS011;16861;52.294;7.760;2023-08-24T03:14:53;10.93;;;7.65;;
30020;SDS011;16861;52.294;7.760;2023-08-24T03:17:20;10.38;;;8.50;;
30020;SDS011;16861;52.294;7.760;2023-08-24T03:19:47;13.23;;;8.25;;
30020;SDS011;16861;52.294;7.760;2023-08-24T03:22:14;12.70;;;7.60;;
30020;SDS011;16861;52.294;7.760;2023-08-24T03:24:40;12.55;;;8.23;;
30020;SDS011;16861;52.294;7.760;2023-08-24T03:27:06;9.10;;;7.40;;
30020;SDS011;16861;52.294;7.760;2023-08-24T03:29:33;11.10;;;7.35;;
30020;SDS011;16861;52.294;7.760;2023-08-24T03:32:00;11.98;;;7.53;;
30020;SDS011;16861;52.294;7.760;2023-08-24T03:34:26;11.93;;;7.93;;
30020;SDS011;16861;52.294;7.760;2023-08-24T03:36:53;7.10;;;6.30;;
30020;SDS011;16861;52.294;7.760;2023-08-24T03:39:20;11.25;;;7.05;;
30020;SDS011;16861;52.294;7.760;2023-08-24T03:41:46;8.60;;;6.43;;
30020;SDS011;16861;52.294;7.760;2023-08-24T03:44:13;8.63;;;6.10;;
30020;SDS011;16861;52.294;7.760;2023-08-24T03:46:39;9.23;;;6.03;;
30020;SDS011;16861;52.294;7.760;2023-08-24T03:49:06;10.20;;;5.32;;
30020;SDS011;16861;52.294;7.760;2023-08-24T03:51:32;10.55;;;6.32;;
30020;SDS011;16861;52.294;7.760;2023-08-24T03:53:58;7.82;;;5.90;;
30020;SDS011;16861;52.294;7.760;2023-08-24T03:56:25;7.85;;;6.18;;
30020;SDS011;16861;52.294;7.760;2023-08-24T03:58:52;7.40;;;5.60;;
30020;SDS011;16861;52.294;7.760;2023-08-24T04:01:18;13.85;;;6.57;;
30020;SDS011;16861;52.294;7.760;2023-08-24T04:03:45;8.27;;;5.15;;
30020;SDS011;16861;52.294;7.760;2023-08-24T04:06:11;7.95;;;6.47;;
30020;SDS011;16861;52.294;7.760;2023-08-24T04:08:38;8.80;;;6.50;;
30020;SDS011;16861;52.294;7.760;2023-08-24T04:11:05;9.27;;;6.10;;
30020;SDS011;16861;52.294;7.760;2023-08-24T04:13:31;10.13;;;6.72;;
30020;SDS011;16861;52.294;7.760;2023-08-24T04:15:57;7.80;;;6.32;;
30020;SDS011;16861;52.294;7.760;2023-08-24T04:18:24;12.05;;;6.75;;
30020;SDS011;16861;52.294;7.760;2023-08-24T04:20:54;8.80;;;6.55;;
30020;SDS011;16861;52.294;7.760;2023-08-24T04:23:23;9.65;;;6.15;;
30020;SDS011;16861;52.294;7.760;2023-08-24T04:25:54;11.90;;;6.82;;
30020;SDS011;16861;52.294;7.760;2023-08-24T04:28:20;10.02;;;6.60;;
30020;SDS011;16861;52.294;7.760;2023-08-24T04:30:54;12.40;;;6.55;;
30020;SDS011;16861;52.294;7.760;2023-08-24T04:33:22;7.65;;;5.53;;
30020;SDS011;16861;52.294;7.760;2023-08-24T04:35:49;10.18;;;7.10;;
30020;SDS011;16861;52.294;7.760;2023-08-24T04:38:17;11.95;;;6.43;;
30020;SDS011;16861;52.294;7.760;2023-08-24T04:40:45;11.30;;;6.72;;
30020;SDS011;16861;52.294;7.760;2023-08-24T04:43:33;10.25;;;6.00;;
30020;SDS011;16861;52.294;7.760;2023-08-24T04:45:59;8.07;;;5.95;;
30020;SDS011;16861;52.294;7.760;2023-08-24T04:48:26;8.00;;;6.85;;
30020;SDS011;16861;52.294;7.760;2023-08-24T04:50:52;10.05;;;6.65;;
30020;SDS011;16861;52.294;7.760;2023-08-24T04:53:19;9.60;;;6.35;;
30020;SDS011;16861;52.294;7.760;2023-08-24T04:55:46;7.65;;;5.75;;
30020;SDS011;16861;52.294;7.760;2023-08-24T04:58:13;8.45;;;6.30;;
30020;SDS011;16861;52.294;7.760;2023-08-24T05:00:39;10.73;;;5.50;;
30020;SDS011;16861;52.294;7.760;2023-08-24T05:03:06;9.45;;;5.97;;
30020;SDS011;16861;52.294;7.760;2023-08-24T05:05:34;6.43;;;5.65;;
30020;SDS011;16861;52.294;7.760;2023-08-24T05:08:02;8.88;;;6.30;;
30020;SDS011;16861;52.294;7.760;2023-08-24T05:10:32;8.00;;;6.03;;
30020;SDS011;16861;52.294;7.760;2023-08-24T05:12:59;9.60;;;6.05;;
30020;SDS011;16861;52.294;7.760;2023-08-24T05:15:26;12.10;;;6.20;;
30020;SDS011;16861;52.294;7.760;2023-08-24T05:17:53;8.40;;;6.13;;
30020;SDS011;16861;52.294;7.760;2023-08-24T05:20:22;10.57;;;5.75;;
30020;SDS011;16861;52.294;7.760;2023-08-24T05:22:49;11.18;;;6.35;;
30020;SDS011;16861;52.294;7.760;2023-08-24T05:25:15;9.25;;;5.90;;
30020;SDS011;16861;52.294;7.760;2023-08-24T05:27:45;6.93;;;5.53;;
30020;SDS011;16861;52.294;7.760;2023-08-24T05:30:11;9.30;;;5.55;;
30020;SDS011;16861;52.294;7.760;2023-08-24T05:32:38;8.30;;;5.40;;
30020;SDS011;16861;52.294;7.760;2023-08-24T05:35:05;6.97;;;5.57;;
30020;SDS011;16861;52.294;7.760;2023-08-24T05:37:33;6.97;;;5.57;;
30020;SDS011;16861;52.294;7.760;2023-08-24T05:40:00;10.73;;;5.78;;
30020;SDS011;16861;52.294;7.760;2023-08-24T05:42:30;9.57;;;6.00;;
30020;SDS011;16861;52.294;7.760;2023-08-24T05:44:57;8.60;;;6.18;;
30020;SDS011;16861;52.294;7.760;2023-08-24T05:47:23;8.35;;;5.50;;
30020;SDS011;16861;52.294;7.760;2023-08-24T05:49:50;8.80;;;5.32;;
30020;SDS011;16861;52.294;7.760;2023-08-24T05:52:16;8.95;;;5.70;;
30020;SDS011;16861;52.294;7.760;2023-08-24T05:54:43;7.85;;;5.30;;
30020;SDS011;16861;52.294;7.760;2023-08-24T05:57:09;7.30;;;6.07;;
30020;SDS011;16861;52.294;7.760;2023-08-24T05:59:36;7.35;;;5.15;;
30020;SDS011;16861;52.294;7.760;2023-08-24T06:02:02;8.65;;;5.68;;
30020;SDS011;16861;52.294;7.760;2023-08-24T06:04:29;10.10;;;6.40;;
30020;SDS011;16861;52.294;7.760;2023-08-24T06:06:56;10.48;;;6.50;;
30020;SDS011;16861;52.294;7.760;2023-08-24T06:09:23;8.63;;;5.60;;
30020;SDS011;16861;52.294;7.760;2023-08-24T06:11:49;9.18;;;5.90;;
30020;SDS011;16861;52.294;7.760;2023-08-24T06:14:16;8.77;;;5.75;;
30020;SDS011;16861;52.294;7.760;2023-08-24T06:16:42;7.65;;;5.80;;
30020;SDS011;16861;52.294;7.760;2023-08-24T06:19:09;6.78;;;5.35;;
30020;SDS011;16861;52.294;7.760;2023-08-24T06:21:35;9.95;;;6.10;;
30020;SDS011;16861;52.294;7.760;2023-08-24T06:24:02;11.07;;;6.00;;
30020;SDS011;16861;52.294;7.760;2023-08-24T06:26:30;9.48;;;6.68;;
30020;SDS011;16861;52.294;7.760;2023-08-24T06:28:56;9.15;;;5.80;;
30020;SDS011;16861;52.294;7.760;2023-08-24T06:31:23;7.25;;;6.13;;
30020;SDS011;16861;52.294;7.760;2023-08-24T06:33:49;9.13;;;6.63;;
30020;SDS011;16861;52.294;7.760;2023-08-24T06:36:16;13.13;;;6.07;;
30020;SDS011;16861;52.294;7.760;2023-08-24T06:38:43;11.95;;;6.57;;
30020;SDS011;16861;52.294;7.760;2023-08-24T06:41:09;7.85;;;5.88;;
30020;SDS011;16861;52.294;7.760;2023-08-24T06:43:38;11.23;;;6.55;;
30020;SDS011;16861;52.294;7.760;2023-08-24T06:46:05;8.90;;;6.50;;
30020;SDS011;16861;52.294;7.760;2023-08-24T06:48:36;8.63;;;6.40;;
30020;SDS011;16861;52.294;7.760;2023-08-24T06:51:03;12.82;;;6.78;;
30020;SDS011;16861;52.294;7.760;2023-08-24T06:53:30;8.23;;;6.50;;
30020;SDS011;16861;52.294;7.760;2023-08-24T06:55:57;12.10;;;6.53;;
30020;SDS011;16861;52.294;7.760;2023-08-24T06:58:24;7.20;;;6.50;;
30020;SDS011;16861;52.294;7.760;2023-08-24T07:00:50;9.73;;;6.28;;
30020;SDS011;16861;52.294;7.760;2023-08-24T07:03:17;11.00;;;6.32;;
30020;SDS011;16861;52.294;7.760;2023-08-24T07:05:45;10.25;;;6.30;;
30020;SDS011;16861;52.294;7.760;2023-08-24T07:08:12;11.63;;;6.80;;
30020;SDS011;16861;52.294;7.760;2023-08-24T07:10:40;8.23;;;6.30;;
30020;SDS011;16861;52.294;7.760;2023-08-24T07:13:07;11.00;;;6.97;;
30020;SDS011;16861;52.294;7.760;2023-08-24T07:15:33;6.38;;;5.55;;
30020;SDS011;16861;52.294;7.760;2023-08-24T07:18:01;8.35;;;6.35;;
30020;SDS011;16861;52.294;7.760;2023-08-24T07:20:28;7.68;;;6.43;;
30020;SDS011;16861;52.294;7.760;2023-08-24T07:22:55;6.65;;;5.93;;
30020;SDS011;16861;52.294;7.760;2023-08-24T07:25:23;8.05;;;5.70;;
30020;SDS011;16861;52.294;7.760;2023-08-24T07:27:49;7.63;;;5.57;;
30020;SDS011;16861;52.294;7.760;2023-08-24T07:30:17;6.55;;;5.95;;
30020;SDS011;16861;52.294;7.760;2023-08-24T07:32:58;7.28;;;5.65;;
30020;SDS011;16861;52.294;7.760;2023-08-24T07:35:25;6.95;;;5.72;;
30020;SDS011;16861;52.294;7.760;2023-08-24T07:37:52;7.38;;;5.93;;
30020;SDS011;16861;52.294;7.760;2023-08-24T07:40:19;8.82;;;5.75;;
30020;SDS011;16861;52.294;7.760;2023-08-24T07:42:46;5.45;;;4.95;;
30020;SDS011;16861;52.294;7.760;2023-08-24T07:45:19;7.28;;;5.55;;
30020;SDS011;16861;52.294;7.760;2023-08-24T07:47:45;7.75;;;5.57;;
30020;SDS011;16861;52.294;7.760;2023-08-24T07:50:12;7.10;;;5.50;;
30020;SDS011;16861;52.294;7.760;2023-08-24T07:52:39;9.10;;;5.20;;
30020;SDS011;16861;52.294;7.760;2023-08-24T07:55:06;7.90;;;5.32;;
30020;SDS011;16861;52.294;7.760;2023-08-24T07:57:33;6.63;;;5.47;;
30020;SDS011;16861;52.294;7.760;2023-08-24T08:00:00;8.95;;;6.20;;
30020;SDS011;16861;52.294;7.760;2023-08-24T08:02:30;6.68;;;5.07;;
30020;SDS011;16861;52.294;7.760;2023-08-24T08:04:58;8.35;;;5.93;;
30020;SDS011;16861;52.294;7.760;2023-08-24T08:07:25;8.55;;;4.82;;
30020;SDS011;16861;52.294;7.760;2023-08-24T08:09:52;5.47;;;4.63;;
30020;SDS011;16861;52.294;7.760;2023-08-24T08:12:19;6.60;;;4.75;;
30020;SDS011;16861;52.294;7.760;2023-08-24T08:14:45;6.60;;;5.38;;
30020;SDS011;16861;52.294;7.760;2023-08-24T08:17:12;7.72;;;5.82;;
30020;SDS011;16861;52.294;7.760;2023-08-24T08:19:38;6.35;;;4.88;;
30020;SDS011;16861;52.294;7.760;2023-08-24T08:22:05;7.85;;;4.57;;
30020;SDS011;16861;52.294;7.760;2023-08-24T08:24:35;5.90;;;4.43;;
30020;SDS011;16861;52.294;7.760;2023-08-24T08:27:02;7.40;;;4.82;;
30020;SDS011;16861;52.294;7.760;2023-08-24T08:29:28;5.95;;;4.88;;
30020;SDS011;16861;52.294;7.760;2023-08-24T08:31:55;5.97;;;4.90;;
30020;SDS011;16861;52.294;7.760;2023-08-24T08:34:22;7.72;;;4.85;;
30020;SDS011;16861;52.294;7.760;2023-08-24T08:36:49;9.32;;;4.75;;
30020;SDS011;16861;52.294;7.760;2023-08-24T08:39:16;5.90;;;4.30;;
30020;SDS011;16861;52.294;7.760;2023-08-24T08:41:44;10.13;;;5.43;;
30020;SDS011;16861;52.294;7.760;2023-08-24T08:44:15;6.25;;;5.13;;
30020;SDS011;16861;52.294;7.760;2023-08-24T08:46:42;7.55;;;5.15;;
30020;SDS011;16861;52.294;7.760;2023-08-24T08:49:10;6.47;;;5.30;;
30020;SDS011;16861;52.294;7.760;2023-08-24T08:51:38;6.25;;;4.97;;
30020;SDS011;16861;52.294;7.760;2023-08-24T08:54:05;6.50;;;4.70;;
30020;SDS011;16861;52.294;7.760;2023-08-24T08:56:32;7.47;;;5.25;;
30020;SDS011;16861;52.294;7.760;2023-08-24T08:58:59;8.85;;;4.72;;
30020;SDS011;16861;52.294;7.760;2023-08-24T09:01:27;6.00;;;4.82;;
30020;SDS011;16861;52.294;7.760;2023-08-24T09:03:54;7.18;;;5.22;;
30020;SDS011;16861;52.294;7.760;2023-08-24T09:06:23;7.72;;;5.40;;
30020;SDS011;16861;52.294;7.760;2023-08-24T09:08:50;12.52;;;5.47;;
30020;SDS011;16861;52.294;7.760;2023-08-24T09:11:18;7.78;;;4.88;;
30020;SDS011;16861;52.294;7.760;2023-08-24T09:13:45;6.35;;;4.93;;
30020;SDS011;16861;52.294;7.760;2023-08-24T09:16:12;5.22;;;4.70;;
30020;SDS011;16861;52.294;7.760;2023-08-24T09:18:46;10.18;;;4.63;;
30020;SDS011;16861;52.294;7.760;2023-08-24T09:21:14;9.60;;;4.80;;
30020;SDS011;16861;52.294;7.760;2023-08-24T09:23:45;4.63;;;4.13;;
30020;SDS011;16861;52.294;7.760;2023-08-24T09:26:34;6.90;;;5.10;;
30020;SDS011;16861;52.294;7.760;2023-08-24T09:29:12;6.97;;;4.63;;
30020;SDS011;16861;52.294;7.760;2023-08-24T09:31:40;9.82;;;4.70;;
30020;SDS011;16861;52.294;7.760;2023-08-24T09:34:10;5.43;;;4.35;;
30020;SDS011;16861;52.294;7.760;2023-08-24T09:36:37;10.90;;;4.80;;
30020;SDS011;16861;52.294;7.760;2023-08-24T09:39:05;5.50;;;4.20;;
30020;SDS011;16861;52.294;7.760;2023-08-24T09:41:45;5.28;;;4.13;;
30020;SDS011;16861;52.294;7.760;2023-08-24T09:44:19;5.68;;;4.05;;
30020;SDS011;16861;52.294;7.760;2023-08-24T09:46:45;7.93;;;4.13;;
30020;SDS011;16861;52.294;7.760;2023-08-24T09:49:12;4.90;;;4.07;;
30020;SDS011;16861;52.294;7.760;2023-08-24T09:51:39;4.25;;;3.72;;
30020;SDS011;16861;52.294;7.760;2023-08-24T09:54:08;6.85;;;4.05;;
30020;SDS011;16861;52.294;7.760;2023-08-24T09:56:37;6.13;;;3.72;;
30020;SDS011;16861;52.294;7.760;2023-08-24T10:01:44;7.00;;;4.07;;
30020;SDS011;16861;52.294;7.760;2023-08-24T10:04:23;6.13;;;4.05;;
30020;SDS011;16861;52.294;7.760;2023-08-24T10:06:52;6.63;;;4.35;;
30020;SDS011;16861;52.294;7.760;2023-08-24T10:09:31;5.65;;;4.13;;
30020;SDS011;16861;52.294;7.760;2023-08-24T10:12:02;7.22;;;5.05;;
30020;SDS011;16861;52.294;7.760;2023-08-24T10:14:35;9.30;;;4.10;;
30020;SDS011;16861;52.294;7.760;2023-08-24T10:17:05;10.05;;;4.20;;
30020;SDS011;16861;52.294;7.760;2023-08-24T10:19:33;5.43;;;3.22;;
30020;SDS011;16861;52.294;7.760;2023-08-24T10:22:00;6.07;;;3.90;;
30020;SDS011;16861;52.294;7.760;2023-08-24T10:24:29;5.03;;;3.60;;
30020;SDS011;16861;52.294;7.760;2023-08-24T10:26:57;5.88;;;3.88;;
30020;SDS011;16861;52.294;7.760;2023-08-24T10:29:26;4.25;;;3.00;;
30020;SDS011;16861;52.294;7.760;2023-08-24T10:31:54;6.47;;;3.10;;
30020;SDS011;16861;52.294;7.760;2023-08-24T10:34:21;4.10;;;2.70;;
30020;SDS011;16861;52.294;7.760;2023-08-24T10:36:49;6.10;;;3.05;;
30020;SDS011;16861;52.294;7.760;2023-08-24T10:39:15;3.97;;;3.00;;
30020;SDS011;16861;52.294;7.760;2023-08-24T10:41:49;5.53;;;3.40;;
30020;SDS011;16861;52.294;7.760;2023-08-24T10:44:43;3.45;;;3.00;;
30020;SDS011;16861;52.294;7.760;2023-08-24T10:47:22;4.63;;;3.10;;
30020;SDS011;16861;52.294;7.760;2023-08-24T10:52:23;5.70;;;2.78;;
30020;SDS011;16861;52.294;7.760;2023-08-24T10:54:54;3.50;;;2.90;;
30020;SDS011;16861;52.294;7.760;2023-08-24T10:57:24;6.15;;;2.63;;
30020;SDS011;16861;52.294;7.760;2023-08-24T11:00:02;3.70;;;2.88;;
30020;SDS011;16861;52.294;7.760;2023-08-24T11:02:47;5.80;;;2.80;;
30020;SDS011;16861;52.294;7.760;2023-08-24T11:10:33;4.00;;;2.50;;
30020;SDS011;16861;52.294;7.760;2023-08-24T11:13:13;4.72;;;2.92;;
30020;SDS011;16861;52.294;7.760;2023-08-24T11:15:42;5.13;;;3.00;;
30020;SDS011;16861;52.294;7.760;2023-08-24T11:20:46;5.22;;;2.65;;
30020;SDS011;16861;52.294;7.760;2023-08-24T11:23:17;4.80;;;2.25;;
30020;SDS011;16861;52.294;7.760;2023-08-24T11:25:45;4.30;;;2.30;;
30020;SDS011;16861;52.294;7.760;2023-08-24T11:28:16;4.72;;;3.08;;
30020;SDS011;16861;52.294;7.760;2023-08-24T11:30:44;4.97;;;2.15;;
30020;SDS011;16861;52.294;7.760;2023-08-24T11:33:11;4.88;;;2.33;;
30020;SDS011;16861;52.294;7.760;2023-08-24T11:35:42;3.55;;;1.90;;
30020;SDS011;16861;52.294;7.760;2023-08-24T11:38:10;3.95;;;2.08;;
30020;SDS011;16861;52.294;7.760;2023-08-24T11:40:37;3.60;;;2.10;;
30020;SDS011;16861;52.294;7.760;2023-08-24T11:43:05;4.55;;;1.90;;
30020;SDS011;16861;52.294;7.760;2023-08-24T11:45:32;5.07;;;2.00;;
30020;SDS011;16861;52.294;7.760;2023-08-24T11:48:01;2.40;;;2.20;;
30020;SDS011;16861;52.294;7.760;2023-08-24T11:50:28;3.33;;;1.83;;
30020;SDS011;16861;52.294;7.760;2023-08-24T11:52:56;3.47;;;1.92;;
30020;SDS011;16861;52.294;7.760;2023-08-24T11:55:23;3.38;;;2.17;;
30020;SDS011;16861;52.294;7.760;2023-08-24T11:57:50;4.28;;;2.22;;
30020;SDS011;16861;52.294;7.760;2023-08-24T12:00:18;2.65;;;1.92;;
30020;SDS011;16861;52.294;7.760;2023-08-24T12:02:47;3.53;;;1.90;;
30020;SDS011;16861;52.294;7.760;2023-08-24T12:05:21;4.68;;;2.22;;
30020;SDS011;16861;52.294;7.760;2023-08-24T12:07:49;2.85;;;1.83;;
30020;SDS011;16861;52.294;7.760;2023-08-24T12:10:18;3.08;;;1.92;;
30020;SDS011;16861;52.294;7.760;2023-08-24T12:12:46;4.63;;;2.22;;
30020;SDS011;16861;52.294;7.760;2023-08-24T12:15:19;3.35;;;2.05;;
30020;SDS011;16861;52.294;7.760;2023-08-24T12:17:48;3.42;;;2.20;;
30020;SDS011;16861;52.294;7.760;2023-08-24T12:20:21;3.13;;;1.98;;
30020;SDS011;16861;52.294;7.760;2023-08-24T12:22:54;2.33;;;1.77;;
30020;SDS011;16861;52.294;7.760;2023-08-24T12:25:21;6.43;;;2.03;;
30020;SDS011;16861;52.294;7.760;2023-08-24T12:27:50;3.85;;;1.88;;
30020;SDS011;16861;52.294;7.760;2023-08-24T12:30:18;2.45;;;1.90;;
30020;SDS011;16861;52.294;7.760;2023-08-24T12:32:46;3.83;;;2.30;;
30020;SDS011;16861;52.294;7.760;2023-08-24T12:35:14;4.95;;;2.08;;
30020;SDS011;16861;52.294;7.760;2023-08-24T12:37:41;2.83;;;1.83;;
30020;SDS011;16861;52.294;7.760;2023-08-24T12:40:08;2.30;;;1.92;;
30020;SDS011;16861;52.294;7.760;2023-08-24T12:42:35;3.65;;;1.80;;
30020;SDS011;16861;52.294;7.760;2023-08-24T12:45:02;3.08;;;2.13;;
30020;SDS011;16861;52.294;7.760;2023-08-24T12:47:31;4.40;;;1.95;;
30020;SDS011;16861;52.294;7.760;2023-08-24T12:49:57;2.40;;;1.60;;
30020;SDS011;16861;52.294;7.760;2023-08-24T12:52:24;1.90;;;1.67;;
30020;SDS011;16861;52.294;7.760;2023-08-24T12:54:50;4.82;;;2.00;;
30020;SDS011;16861;52.294;7.760;2023-08-24T12:57:17;4.40;;;1.80;;
30020;SDS011;16861;52.294;7.760;2023-08-24T12:59:44;3.30;;;1.98;;
30020;SDS011;16861;52.294;7.760;2023-08-24T13:02:10;12.90;;;1.77;;
30020;SDS011;16861;52.294;7.760;2023-08-24T13:04:50;2.53;;;1.88;;
30020;SDS011;16861;52.294;7.760;2023-08-24T13:07:16;3.20;;;1.70;;
30020;SDS011;16861;52.294;7.760;2023-08-24T13:09:43;3.13;;;1.92;;
30020;SDS011;16861;52.294;7.760;2023-08-24T13:12:09;3.72;;;2.13;;
30020;SDS011;16861;52.294;7.760;2023-08-24T13:14:35;2.50;;;2.05;;
30020;SDS011;16861;52.294;7.760;2023-08-24T13:17:02;3.22;;;2.15;;
30020;SDS011;16861;52.294;7.760;2023-08-24T13:19:29;2.53;;;1.80;;
30020;SDS011;16861;52.294;7.760;2023-08-24T13:21:55;3.47;;;2.20;;
30020;SDS011;16861;52.294;7.760;2023-08-24T13:24:22;2.45;;;1.80;;
30020;SDS011;16861;52.294;7.760;2023-08-24T13:26:48;2.60;;;1.83;;
30020;SDS011;16861;52.294;7.760;2023-08-24T13:29:15;2.85;;;1.88;;
30020;SDS011;16861;52.294;7.760;2023-08-24T13:31:43;3.08;;;1.73;;
30020;SDS011;16861;52.294;7.760;2023-08-24T13:34:09;3.15;;;2.00;;
30020;SDS011;16861;52.294;7.760;2023-08-24T13:36:36;2.20;;;2.00;;
30020;SDS011;16861;52.294;7.760;2023-08-24T13:39:02;3.05;;;2.17;;
30020;SDS011;16861;52.294;7.760;2023-08-24T13:41:30;2.25;;;1.92;;
30020;SDS011;16861;52.294;7.760;2023-08-24T13:43:57;3.28;;;2.00;;
30020;SDS011;16861;52.294;7.760;2023-08-24T13:46:24;2.60;;;1.80;;
30020;SDS011;16861;52.294;7.760;2023-08-24T13:48:51;2.55;;;2.00;;
30020;SDS011;16861;52.294;7.760;2023-08-24T13:51:17;2.80;;;1.95;;
30020;SDS011;16861;52.294;7.760;2023-08-24T13:53:44;3.00;;;1.90;;
30020;SDS011;16861;52.294;7.760;2023-08-24T13:56:10;2.40;;;1.63;;
30020;SDS011;16861;52.294;7.760;2023-08-24T13:58:37;3.25;;;1.92;;
30020;SDS011;16861;52.294;7.760;2023-08-24T14:01:03;3.28;;;2.25;;
30020;SDS011;16861;52.294;7.760;2023-08-24T14:03:30;3.20;;;2.22;;
30020;SDS011;16861;52.294;7.760;2023-08-24T14:05:57;7.07;;;2.33;;
30020;SDS011;16861;52.294;7.760;2023-08-24T14:08:24;5.10;;;2.30;;
30020;SDS011;16861;52.294;7.760;2023-08-24T14:10:51;4.50;;;2.28;;
30020;SDS011;16861;52.294;7.760;2023-08-24T14:13:18;8.80;;;2.42;;
30020;SDS011;16861;52.294;7.760;2023-08-24T14:15:45;3.08;;;1.83;;
30020;SDS011;16861;52.294;7.760;2023-08-24T14:18:11;4.05;;;2.60;;
30020;SDS011;16861;52.294;7.760;2023-08-24T14:20:39;4.53;;;2.25;;
30020;SDS011;16861;52.294;7.760;2023-08-24T14:23:05;5.40;;;2.70;;
30020;SDS011;16861;52.294;7.760;2023-08-24T14:25:32;3.45;;;2.45;;
30020;SDS011;16861;52.294;7.760;2023-08-24T14:27:59;3.58;;;2.30;;
30020;SDS011;16861;52.294;7.760;2023-08-24T14:30:33;5.28;;;2.22;;
30020;SDS011;16861;52.294;7.760;2023-08-24T14:32:59;4.13;;;2.72;;
30020;SDS011;16861;52.294;7.760;2023-08-24T14:35:25;5.75;;;2.40;;
30020;SDS011;16861;52.294;7.760;2023-08-24T14:37:52;4.40;;;2.40;;
30020;SDS011;16861;52.294;7.760;2023-08-24T14:40:19;3.40;;;2.35;;
30020;SDS011;16861;52.294;7.760;2023-08-24T14:42:46;5.03;;;2.72;;
30020;SDS011;16861;52.294;7.760;2023-08-24T14:45:15;5.20;;;2.53;;
30020;SDS011;16861;52.294;7.760;2023-08-24T14:47:42;5.70;;;2.45;;
30020;SDS011;16861;52.294;7.760;2023-08-24T14:50:09;3.88;;;2.35;;
30020;SDS011;16861;52.294;7.760;2023-08-24T14:52:36;2.60;;;2.40;;
30020;SDS011;16861;52.294;7.760;2023-08-24T14:55:05;3.40;;;2.28;;
30020;SDS011;16861;52.294;7.760;2023-08-24T14:57:34;4.25;;;2.78;;
30020;SDS011;16861;52.294;7.760;2023-08-24T15:00:00;4.50;;;2.22;;
30020;SDS011;16861;52.294;7.760;2023-08-24T15:02:27;3.75;;;2.20;;
30020;SDS011;16861;52.294;7.760;2023-08-24T15:04:54;4.50;;;2.63;;